Time;durP1;ratioP1;P1;durP2;ratioP2;P2;SDS_P1;SDS_P2;PMS_P1;PMS_P2;Temp;Humidity;BMP_temperature;BMP_pressure;BME280_temperature;BME280_humidity;BME280_pressure;Samples;Min_cycle;Max_cycle;Signal;HPM_P1;HPM_P2
2021/09/15 00:06:55;;;;;;;1999.90;999.90;;;;;;;17.62;73.59;101079.50;15821583;28;20040;-59
2021/09/15 00:14:32;;;;;;;1999.90;999.90;;;;;;;17.67;73.64;101071.53;15863452;28;20043;-60
2021/09/15 00:22:04;;;;;;;1999.90;999.90;;;;;;;17.64;74.05;101063.03;15833406;28;20064;-60
2021/09/15 00:29:38;;;;;;;1999.90;999.90;;;;;;;17.63;74.31;101067.84;15847281;28;20043;-58
2021/09/15 00:37:12;;;;;;;1999.90;999.90;;;;;;;17.43;75.01;101055.75;15848218;28;20054;-60
2021/09/15 00:44:55;;;;;;;1999.90;999.90;;;;;;;17.53;74.88;101065.63;15820230;28;20036;-59
2021/09/15 00:52:28;;;;;;;1999.90;999.90;;;;;;;17.64;74.54;101065.84;15820550;28;20504;-59
2021/09/15 01:00:02;;;;;;;1999.90;999.90;;;;;;;17.57;75.08;101066.50;15802374;28;20035;-60
2021/09/15 01:07:36;;;;;;;1999.90;999.90;;;;;;;17.64;74.87;101060.19;15812145;28;20082;-60
2021/09/15 01:15:11;;;;;;;1999.90;999.90;;;;;;;17.51;75.43;101054.72;15830697;28;20566;-58
2021/09/15 01:23:17;;;;;;;1999.90;999.90;;;;;;;17.42;76.08;101031.56;15826080;28;20565;-59
2021/09/15 01:31:14;;;;;;;1999.90;999.90;;;;;;;17.37;76.49;101019.75;15830247;28;20071;-60
2021/09/15 01:38:57;;;;;;;1999.90;999.90;;;;;;;17.37;76.35;101020.56;15829205;28;20047;-58
2021/09/15 01:46:30;;;;;;;1999.90;999.90;;;;;;;17.38;76.30;101038.28;15814941;28;20036;-58
2021/09/15 01:54:07;;;;;;;1999.90;999.90;;;;;;;17.28;76.92;101017.16;15801985;28;20036;-59
2021/09/15 02:01:41;;;;;;;1999.90;999.90;;;;;;;17.31;76.65;101005.97;15824437;28;20059;-59
2021/09/15 02:09:41;;;;;;;1999.90;999.90;;;;;;;17.29;77.00;100999.84;15865578;28;20071;-59
2021/09/15 02:17:21;;;;;;;1999.90;999.90;;;;;;;17.37;76.64;100991.53;15854728;28;20749;-60
2021/09/15 02:25:00;;;;;;;1999.90;999.90;;;;;;;17.39;76.92;100998.44;15816490;28;20032;-59
2021/09/15 02:32:55;;;;;;;1999.90;999.90;;;;;;;17.53;76.41;101006.38;15837906;28;20530;-57
2021/09/15 02:40:57;;;;;;;1999.90;999.90;;;;;;;17.52;76.49;100980.19;15833718;28;20043;-60
2021/09/15 02:48:51;;;;;;;1999.90;999.90;;;;;;;17.37;77.23;100977.44;15829697;28;20462;-60
2021/09/15 02:56:33;;;;;;;1999.90;999.90;;;;;;;17.26;78.05;100971.59;15823890;28;20048;-57
2021/09/15 03:04:34;;;;;;;;;;;;;;;17.60;76.60;100984.72;15830732;28;20071;-58
2021/09/15 03:12:19;;;;;;;1999.90;999.90;;;;;;;17.47;77.13;100980.47;15853705;28;20330;-60
2021/09/15 03:19:53;;;;;;;1999.90;999.90;;;;;;;17.41;77.26;100965.06;15825888;28;20039;-57
2021/09/15 03:27:32;;;;;;;1999.90;999.90;;;;;;;17.43;77.39;100957.03;15820724;28;20122;-60
2021/09/15 03:35:05;;;;;;;1999.90;999.90;;;;;;;17.19;78.38;100955.31;15839312;28;20069;-58
2021/09/15 03:42:46;;;;;;;1999.90;999.90;;;;;;;17.28;78.17;100936.16;15818494;28;20500;-59
2021/09/15 03:50:18;;;;;;;1999.90;999.90;;;;;;;17.33;78.02;100925.78;15824988;28;20036;-58
2021/09/15 03:57:53;;;;;;;1999.90;999.90;;;;;;;17.67;76.53;100921.16;15792417;28;20039;-59
2021/09/15 04:05:27;;;;;;;1999.90;999.90;;;;;;;17.24;78.50;100923.22;15795862;28;20058;-60
2021/09/15 04:13:01;;;;;;;1999.90;999.90;;;;;;;17.28;78.73;100919.25;15840834;28;20102;-60
2021/09/15 04:21:24;;;;;;;1999.90;999.90;;;;;;;17.10;79.54;100911.66;15828817;28;20113;-60
2021/09/15 04:36:50;;;;;;;1999.90;999.90;;;;;;;17.60;77.16;100922.66;15827324;28;20039;-60
2021/09/15 04:44:42;;;;;;;1999.90;999.90;;;;;;;17.83;76.59;100902.94;15831019;28;20126;-59
2021/09/15 04:52:58;;;;;;;1999.90;999.90;;;;;;;17.60;78.02;100902.09;15808261;28;20062;-60
2021/09/15 05:00:55;;;;;;;1999.90;999.90;;;;;;;17.67;77.64;100909.88;15736774;28;20126;-59
2021/09/15 05:08:28;;;;;;;1999.90;999.90;;;;;;;17.49;78.76;100904.72;15833013;28;20071;-59
2021/09/15 05:16:02;;;;;;;1999.90;999.90;;;;;;;17.51;78.84;100899.56;15822038;28;20071;-57
2021/09/15 05:23:35;;;;;;;1999.90;999.90;;;;;;;17.29;79.87;100889.03;15837881;28;20503;-57
2021/09/15 05:31:13;;;;;;;1999.90;999.90;;;;;;;17.48;79.43;100897.47;15853348;28;20385;-59
2021/09/15 05:38:49;;;;;;;1999.90;999.90;;;;;;;17.69;78.72;100901.84;15843130;28;20062;-59
2021/09/15 05:46:27;;;;;;;1999.90;999.90;;;;;;;17.57;79.09;100897.22;15830193;28;20161;-59
2021/09/15 05:54:00;;;;;;;1999.90;999.90;;;;;;;17.77;78.11;100901.63;15848590;28;20582;-59
2021/09/15 06:01:34;;;;;;;1999.90;999.90;;;;;;;18.03;77.52;100900.00;15794228;28;20493;-59
2021/09/15 06:09:07;;;;;;;1999.90;999.90;;;;;;;18.09;77.11;100898.50;15777531;28;20408;-59
2021/09/15 06:16:41;;;;;;;1999.90;999.90;;;;;;;17.99;77.66;100894.31;15793534;28;20040;-59
2021/09/15 06:24:15;;;;;;;1999.90;999.90;;;;;;;18.35;76.18;100890.03;15793779;28;20043;-58
2021/09/15 06:31:50;;;;;;;;;;;;;;;18.43;76.70;100888.09;15844904;28;20047;-58
2021/09/15 06:39:22;;;;;;;1999.90;999.90;;;;;;;18.97;73.88;100878.34;15855677;28;20342;-59
2021/09/15 06:46:56;;;;;;;1999.90;999.90;;;;;;;19.10;73.52;100878.88;15873125;28;20055;-60
2021/09/15 06:54:28;;;;;;;1999.90;999.90;;;;;;;19.14;73.38;100885.38;15871566;28;20039;-59
2021/09/15 07:02:02;;;;;;;1999.90;999.90;;;;;;;19.45;72.71;100887.72;15871394;28;20566;-57
2021/09/15 07:09:34;;;;;;;1999.90;999.90;;;;;;;19.80;72.06;100878.78;15871918;28;20039;-60
2021/09/15 07:17:08;;;;;;;1999.90;999.90;;;;;;;20.61;68.84;100874.06;15871709;27;20118;-60
2021/09/15 07:24:40;;;;;;;1999.90;999.90;;;;;;;21.58;65.38;100887.34;15871433;28;20046;-61
2021/09/15 07:32:14;;;;;;;1999.90;999.90;;;;;;;21.78;64.62;100880.06;15859786;28;20506;-59
2021/09/15 07:39:46;;;;;;;1999.90;999.90;;;;;;;21.97;63.77;100880.84;15870152;28;20048;-60
2021/09/15 07:47:20;;;;;;;1999.90;999.90;;;;;;;22.59;62.40;100881.16;15851324;28;20036;-61
2021/09/15 07:54:52;;;;;;;1999.90;999.90;;;;;;;22.58;62.92;100873.84;15850956;28;20329;-60
2021/09/15 08:02:28;;;;;;;1999.90;999.90;;;;;;;22.92;61.38;100871.28;15882142;27;20450;-59
2021/09/15 08:10:00;;;;;;;1999.90;999.90;;;;;;;24.04;58.27;100866.44;15860433;28;20047;-59
2021/09/15 08:17:34;;;;;;;1999.90;999.90;;;;;;;24.53;57.48;100870.03;15861018;27;20118;-58
2021/09/15 08:25:08;;;;;;;1999.90;999.90;;;;;;;24.16;58.04;100878.13;15844728;27;20067;-59
2021/09/15 08:32:42;;;;;;;1999.90;999.90;;;;;;;23.74;59.28;100865.09;15893585;27;20044;-60
2021/09/15 08:40:29;;;;;;;1999.90;999.90;;;;;;;25.21;56.29;100858.56;15830941;27;20135;-61
2021/09/15 08:48:08;;;;;;;1999.90;999.90;;;;;;;25.13;56.72;100849.31;15802980;28;20408;-58
2021/09/15 08:55:42;;;;;;;1999.90;999.90;;;;;;;24.38;59.67;100850.22;15784467;28;20048;-59
2021/09/15 09:03:17;;;;;;;1999.90;999.90;;;;;;;24.22;60.38;100844.28;15785359;28;20059;-59
2021/09/15 09:10:52;;;;;;;1999.90;999.90;;;;;;;24.15;58.74;100841.50;15802283;28;20127;-61
2021/09/15 09:18:26;;;;;;;1999.90;999.90;;;;;;;24.30;59.63;100842.97;15784358;28;20059;-61
2021/09/15 09:26:00;;;;;;;1999.90;999.90;;;;;;;24.97;57.98;100841.34;15804756;28;20070;-61
2021/09/15 09:33:34;;;;;;;1999.90;999.90;;;;;;;25.36;56.86;100836.31;15865168;28;20496;-60
2021/09/15 09:41:09;;;;;;;1999.90;999.90;;;;;;;26.08;55.88;100833.91;15864896;28;20534;-61
2021/09/15 09:48:51;;;;;;;1999.90;999.90;;;;;;;26.19;54.92;100829.59;15846156;28;20043;-60
2021/09/15 09:56:23;;;;;;;1999.90;999.90;;;;;;;27.38;53.88;100820.09;15864544;28;20418;-61
2021/09/15 10:03:58;;;;;;;;;;;;;;;27.32;52.49;100819.84;15843785;28;20123;-61
2021/09/15 10:11:35;;;;;;;1999.90;999.90;;;;;;;27.31;53.92;100797.38;15852302;28;19927;-58
2021/09/15 10:19:11;;;;;;;1999.90;999.90;;;;;;;26.84;52.60;100786.16;15856943;28;20043;-60
2021/09/15 10:26:45;;;;;;;1999.90;999.90;;;;;;;26.71;52.38;100783.19;15855955;28;20109;-60
2021/09/15 10:34:49;;;;;;;1999.90;999.90;;;;;;;26.36;53.01;100787.56;15856197;28;20044;-60
2021/09/15 10:42:38;;;;;;;1999.90;999.90;;;;;;;27.04;52.17;100775.50;15855372;28;20047;-60
2021/09/15 10:50:51;;;;;;;1999.90;999.90;;;;;;;26.94;52.66;100764.25;15855350;28;20039;-59
2021/09/15 10:58:27;;;;;;;1999.90;999.90;;;;;;;27.33;51.75;100752.69;15872207;28;20157;-58
2021/09/15 11:06:24;;;;;;;1999.90;999.90;;;;;;;28.07;50.52;100740.50;15855591;28;20063;-60
2021/09/15 11:13:59;;;;;;;1999.90;999.90;;;;;;;27.72;50.37;100738.59;15853690;28;20066;-59
2021/09/15 11:21:35;;;;;;;1999.90;999.90;;;;;;;27.93;49.59;100740.09;15852133;28;20071;-61
2021/09/15 11:29:08;;;;;;;1999.90;999.90;;;;;;;27.84;51.78;100738.69;15853340;28;20047;-57
2021/09/15 11:36:49;;;;;;;1999.90;999.90;;;;;;;27.21;52.50;100735.44;15870809;28;20067;-60
2021/09/15 11:44:25;;;;;;;1999.90;999.90;;;;;;;26.85;54.32;100738.31;15852409;28;20108;-61
2021/09/15 11:52:01;;;;;;;1999.90;999.90;;;;;;;26.75;55.64;100752.41;15870934;28;20043;-59
2021/09/15 11:59:34;;;;;;;1999.90;999.90;;;;;;;26.74;54.73;100758.59;15851765;28;20116;-59
2021/09/15 12:07:08;;;;;;;1999.90;999.90;;;;;;;26.28;53.42;100773.88;15869849;28;20116;-60
2021/09/15 12:14:44;;;;;;;1999.90;999.90;;;;;;;26.40;54.06;100771.19;15869648;28;20043;-60
2021/09/15 12:22:22;;;;;;;1999.90;999.90;;;;;;;26.05;55.08;100774.72;15868853;28;20459;-60
2021/09/15 12:30:00;;;;;;;1999.90;999.90;;;;;;;25.66;55.77;100766.84;15850355;28;20051;-61
2021/09/15 12:37:40;;;;;;;1999.90;999.90;;;;;;;23.91;68.11;100803.47;15849421;28;20304;-61
2021/09/15 12:45:14;;;;;;;1999.90;999.90;;;;;;;22.63;75.82;100788.13;15835460;28;20096;-61
2021/09/15 12:52:50;;;;;;;1999.90;999.90;;;;;;;22.60;79.19;100777.56;15814669;28;20073;-61
2021/09/15 13:00:24;;;;;;;1999.90;999.90;;;;;;;22.34;79.67;100756.16;15834684;28;20051;-59
2021/09/15 13:07:58;;;;;;;1999.90;999.90;;;;;;;22.48;79.25;100750.41;15825818;28;20382;-62
2021/09/15 13:15:33;;;;;;;1999.90;999.90;;;;;;;22.44;79.79;100741.09;15817336;28;20046;-60
2021/09/15 13:23:06;;;;;;;1999.90;999.90;;;;;;;22.31;82.23;100741.97;15835360;28;20135;-61
2021/09/15 13:30:45;;;;;;;1999.90;999.90;;;;;;;22.50;81.42;100747.13;15827593;28;20036;-60
2021/09/15 13:38:22;;;;;;;1999.90;999.90;;;;;;;22.48;82.60;100739.03;15863066;28;20067;-58
2021/09/15 13:45:54;;;;;;;1999.90;999.90;;;;;;;22.80;80.96;100729.50;15845616;28;20539;-58
2021/09/15 13:53:35;;;;;;;1999.90;999.90;;;;;;;22.70;82.10;100728.34;15824921;28;20044;-60
2021/09/15 14:01:10;;;;;;;1999.90;999.90;;;;;;;22.64;81.85;100715.78;15795497;28;20048;-58
2021/09/15 14:08:43;;;;;;;1999.90;999.90;;;;;;;22.49;83.17;100719.94;15813125;28;20064;-58
2021/09/15 14:16:16;;;;;;;1999.90;999.90;;;;;;;22.52;84.08;100716.28;15847906;28;20335;-58
2021/09/15 14:23:50;;;;;;;1999.90;999.90;;;;;;;22.67;83.32;100708.47;15875842;28;20071;-60
2021/09/15 14:31:22;;;;;;;1999.90;999.90;;;;;;;22.28;84.33;100717.19;15875183;28;20482;-61
2021/09/15 14:38:56;;;;;;;1999.90;999.90;;;;;;;22.21;85.20;100709.53;15874728;28;20055;-61
2021/09/15 14:46:28;;;;;;;1999.90;999.90;;;;;;;22.18;85.20;100691.25;15838476;28;20474;-61
2021/09/15 14:54:02;;;;;;;1999.90;999.90;;;;;;;22.24;85.57;100688.81;15874461;28;20051;-62
2021/09/15 15:01:35;;;;;;;1999.90;999.90;;;;;;;22.18;86.63;100685.56;15855278;28;20047;-61
2021/09/15 15:09:09;;;;;;;1999.90;999.90;;;;;;;22.27;85.03;100673.75;15868389;27;20047;-61
2021/09/15 15:16:41;;;;;;;1999.90;999.90;;;;;;;22.36;84.69;100671.28;15871149;28;20040;-61
2021/09/15 15:24:15;;;;;;;1999.90;999.90;;;;;;;22.48;85.92;100652.94;15860360;28;20097;-60
2021/09/15 15:31:48;;;;;;;1999.90;999.90;;;;;;;22.34;86.53;100647.34;15870319;28;20043;-61
2021/09/15 15:39:21;;;;;;;1999.90;999.90;;;;;;;22.58;85.29;100642.72;15869407;28;20057;-60
2021/09/15 15:46:55;;;;;;;1999.90;999.90;;;;;;;22.23;86.16;100638.88;15869897;28;20043;-60
2021/09/15 15:54:29;;;;;;;1999.90;999.90;;;;;;;22.44;85.47;100627.38;15852944;28;20382;-60
2021/09/15 16:02:01;;;;;;;1999.90;999.90;;;;;;;22.35;83.98;100623.38;15869883;28;20040;-61
2021/09/15 16:09:37;;;;;;;1999.90;999.90;;;;;;;22.42;83.67;100623.34;15851446;28;20108;-62
2021/09/15 16:17:09;;;;;;;1999.90;999.90;;;;;;;22.40;83.71;100618.03;15851120;28;20059;-61
2021/09/15 16:24:42;;;;;;;1999.90;999.90;;;;;;;22.29;84.72;100620.16;15851516;28;20032;-61
2021/09/15 16:32:15;;;;;;;1999.90;999.90;;;;;;;21.98;86.39;100619.06;15866028;28;20046;-61
2021/09/15 16:39:49;;;;;;;1999.90;999.90;;;;;;;22.07;85.76;100608.09;15847806;28;20071;-61
2021/09/15 16:47:21;;;;;;;1999.90;999.90;;;;;;;21.79;87.21;100605.38;15846388;28;20050;-61
2021/09/15 16:54:55;;;;;;;1999.90;999.90;;;;;;;21.94;86.42;100594.75;15864876;28;20043;-61
2021/09/15 17:02:27;;;;;;;1999.90;999.90;;;;;;;21.80;87.19;100592.81;15863812;28;20051;-59
2021/09/15 17:10:01;;;;;;;1999.90;999.90;;;;;;;21.77;87.21;100583.06;15863479;28;20100;-60
2021/09/15 17:17:33;;;;;;;1999.90;999.90;;;;;;;21.97;85.55;100588.25;15837879;28;20405;-61
2021/09/15 17:25:08;;;;;;;1999.90;999.90;;;;;;;21.75;86.69;100581.84;15865518;28;20051;-58
2021/09/15 17:32:41;;;;;;;1999.90;999.90;;;;;;;22.08;84.48;100586.19;15796225;28;1004551;-60
2021/09/15 17:40:15;;;;;;;1999.90;999.90;;;;;;;21.99;85.38;100588.63;15847227;28;20408;-59
2021/09/15 17:47:47;;;;;;;1999.90;999.90;;;;;;;22.08;84.69;100583.34;15844414;28;20093;-61
2021/09/15 17:55:21;;;;;;;1999.90;999.90;;;;;;;22.03;84.18;100570.34;15861533;28;20131;-61
2021/09/15 18:02:53;;;;;;;1999.90;999.90;;;;;;;21.93;85.15;100584.63;15860101;28;20039;-61
2021/09/15 18:10:27;;;;;;;1999.90;999.90;;;;;;;21.92;85.37;100594.38;15829914;28;20044;-61
2021/09/15 18:17:59;;;;;;;1999.90;999.90;;;;;;;21.98;85.20;100606.91;15844131;28;20055;-60
2021/09/15 18:25:33;;;;;;;1999.90;999.90;;;;;;;21.50;87.22;100599.00;15841473;28;20190;-60
2021/09/15 18:33:05;;;;;;;1999.90;999.90;;;;;;;21.54;86.94;100596.94;15869619;27;20130;-60
2021/09/15 18:40:42;;;;;;;1999.90;999.90;;;;;;;21.68;86.30;100591.25;15807514;28;20143;-60
2021/09/15 18:48:16;;;;;;;1999.90;999.90;;;;;;;21.48;86.96;100588.06;15835113;28;20071;-59
2021/09/15 18:55:50;;;;;;;1999.90;999.90;;;;;;;21.46;86.59;100586.84;15812465;28;20071;-61
2021/09/15 19:03:23;;;;;;;1999.90;999.90;;;;;;;21.40;87.37;100603.50;15832736;28;20036;-59
2021/09/15 19:10:58;;;;;;;1999.90;999.90;;;;;;;21.57;86.43;100596.13;15851757;28;20410;-60
2021/09/15 19:18:31;;;;;;;1999.90;999.90;;;;;;;21.67;85.41;100600.13;15845549;28;20055;-59
2021/09/15 19:26:05;;;;;;;1999.90;999.90;;;;;;;21.48;85.92;100609.97;15810703;28;20039;-59
2021/09/15 19:33:37;;;;;;;1999.90;999.90;;;;;;;21.35;86.16;100603.91;15830026;28;20066;-59
2021/09/15 19:41:11;;;;;;;1999.90;999.90;;;;;;;21.42;86.42;100605.91;15838705;28;20054;-59
2021/09/15 19:48:44;;;;;;;1999.90;999.90;;;;;;;21.31;86.63;100598.25;15871851;28;20120;-60
2021/09/15 19:56:17;;;;;;;;;;;;;;;20.98;89.05;100588.16;15855379;28;20065;-59
2021/09/15 20:03:50;;;;;;;1999.90;999.90;;;;;;;21.21;87.86;100587.69;15799893;28;20402;-62
2021/09/15 20:11:23;;;;;;;1999.90;999.90;;;;;;;20.95;89.13;100577.63;15844840;28;20048;-61
2021/09/15 20:18:56;;;;;;;1999.90;999.90;;;;;;;21.24;87.07;100569.03;15831752;27;20074;-59
2021/09/15 20:26:30;;;;;;;1999.90;999.90;;;;;;;21.02;89.07;100562.59;15823380;28;20090;-61
2021/09/15 20:34:02;;;;;;;1999.90;999.90;;;;;;;21.09;88.35;100565.44;15808642;28;20040;-62
2021/09/15 20:41:36;;;;;;;1999.90;999.90;;;;;;;21.16;88.08;100576.78;15851457;28;20068;-62
2021/09/15 20:49:09;;;;;;;1999.90;999.90;;;;;;;21.17;88.13;100572.72;15845583;27;20039;-61
2021/09/15 20:56:42;;;;;;;1999.90;999.90;;;;;;;21.20;88.19;100571.06;15827637;28;20044;-60
2021/09/15 21:04:15;;;;;;;1999.90;999.90;;;;;;;21.23;88.55;100570.25;15781948;28;20089;-60
2021/09/15 21:11:48;;;;;;;1999.90;999.90;;;;;;;21.09;89.07;100575.97;15791128;28;20078;-61
2021/09/15 21:19:21;;;;;;;1999.90;999.90;;;;;;;21.25;88.24;100567.81;15864473;28;20665;-60
2021/09/15 21:26:54;;;;;;;1999.90;999.90;;;;;;;21.23;88.52;100567.41;15822144;28;20044;-59
2021/09/15 21:34:27;;;;;;;1999.90;999.90;;;;;;;21.46;87.01;100569.81;15863764;28;20459;-61
2021/09/15 21:42:01;;;;;;;1999.90;999.90;;;;;;;21.54;87.06;100571.41;15836258;28;20047;-60
2021/09/15 21:49:36;;;;;;;1999.90;999.90;;;;;;;21.57;86.53;100571.41;15803594;28;20031;-59
2021/09/15 21:57:11;;;;;;;1999.90;999.90;;;;;;;21.40;87.47;100574.31;15834635;28;20097;-60
2021/09/15 22:04:49;;;;;;;1999.90;999.90;;;;;;;21.43;87.96;100574.28;15830302;28;20066;-60
2021/09/15 22:12:25;;;;;;;1999.90;999.90;;;;;;;21.32;88.69;100570.66;15837778;28;20428;-60
2021/09/15 22:19:57;;;;;;;1999.90;999.90;;;;;;;21.45;88.14;100554.81;15861818;28;20412;-61
2021/09/15 22:27:35;;;;;;;1999.90;999.90;;;;;;;21.71;87.15;100566.88;15832041;28;20089;-59
2021/09/15 22:35:10;;;;;;;1999.90;999.90;;;;;;;21.58;87.69;100558.81;15851159;28;20073;-61
2021/09/15 22:42:46;;;;;;;1999.90;999.90;;;;;;;21.50;88.05;100562.91;15829067;28;20524;-61
2021/09/15 22:50:19;;;;;;;1999.90;999.90;;;;;;;21.64;87.18;100562.03;15834805;28;20463;-59
2021/09/15 22:57:55;;;;;;;1999.90;999.90;;;;;;;21.74;86.65;100560.38;15834917;28;20122;-61
2021/09/15 23:05:30;;;;;;;1999.90;999.90;;;;;;;21.82;86.44;100562.75;15858735;28;20289;-61
2021/09/15 23:13:04;;;;;;;1999.90;999.90;;;;;;;21.87;86.29;100565.16;15831911;28;20096;-61
2021/09/15 23:20:37;;;;;;;1999.90;999.90;;;;;;;21.91;86.57;100568.00;15829554;28;20066;-61
2021/09/15 23:28:11;;;;;;;1999.90;999.90;;;;;;;21.85;86.85;100573.28;15849866;28;20048;-60
2021/09/15 23:35:45;;;;;;;1999.90;999.90;;;;;;;21.83;87.15;100575.72;15831251;28;20051;-59
2021/09/15 23:43:19;;;;;;;1999.90;999.90;;;;;;;21.69;87.86;100567.28;15871114;28;20048;-59
2021/09/15 23:50:51;;;;;;;1999.90;999.90;;;;;;;21.72;87.71;100574.97;15843754;28;20048;-63
2021/09/15 23:58:26;;;;;;;1999.90;999.90;;;;;;;21.74;88.20;100583.09;15869151;28;20074;-61
